Time;durP1;ratioP1;P1;durP2;ratioP2;P2;SDS_P1;SDS_P2;PMS_P1;PMS_P2;Temp;Humidity;BMP_temperature;BMP_pressure;BME280_temperature;BME280_humidity;BME280_pressure;Samples;Min_cycle;Max_cycle;Signal;HPM_P1;HPM_P2
2022/04/27 00:01:00;;;;;;;17.48;12.38;;;;;;;7.97;87.00;101203.34;5019829;28;20095;-75
2022/04/27 00:04:03;;;;;;;;;;;;;;;7.87;87.73;101207.16;5034248;28;20468;-75
2022/04/27 00:07:07;;;;;;;15.18;11.95;;;;;;;7.99;87.57;101211.13;5033189;28;19928;-74
2022/04/27 00:10:11;;;;;;;15.80;12.80;;;;;;;7.94;87.97;101203.44;5033374;28;20128;-75
2022/04/27 00:13:15;;;;;;;15.60;12.80;;;;;;;7.99;87.75;101204.19;5033531;28;20052;-75
2022/04/27 00:16:19;;;;;;;15.75;13.65;;;;;;;7.93;87.94;101210.41;5009050;28;20482;-75
2022/04/27 00:19:23;;;;;;;15.30;12.77;;;;;;;7.96;88.25;101209.47;5030200;28;20052;-74
2022/04/27 00:22:26;;;;;;;14.13;12.13;;;;;;;7.87;88.49;101208.00;5052967;28;20171;-75
2022/04/27 00:25:29;;;;;;;20.00;13.00;;;;;;;7.80;88.05;101206.47;5053174;28;20610;-75
2022/04/27 00:28:33;;;;;;;;;;;;;;;7.84;87.40;101210.69;5052995;28;20406;-75
2022/04/27 00:31:36;;;;;;;21.17;13.33;;;;;;;7.75;87.78;101205.75;5052795;28;19986;-75
2022/04/27 00:34:39;;;;;;;;;;;;;;;7.87;87.63;101210.59;5053816;28;20129;-75
2022/04/27 00:37:42;;;;;;;19.75;14.40;;;;;;;7.98;87.28;101204.25;5052941;28;20004;-74
2022/04/27 00:40:45;;;;;;;;;;;;;;;8.16;86.39;101211.47;5040895;28;20048;-75
2022/04/27 00:43:49;;;;;;;18.58;13.13;;;;;;;8.19;86.54;101207.91;5040368;28;20004;-74
2022/04/27 00:46:52;;;;;;;17.17;12.77;;;;;;;8.22;86.54;101207.81;5029929;28;20420;-74
2022/04/27 00:49:57;;;;;;;17.33;14.07;;;;;;;8.06;86.53;101210.91;5028954;28;20644;-74
2022/04/27 00:53:01;;;;;;;21.67;13.98;;;;;;;7.89;87.53;101215.78;5040209;28;20087;-74
2022/04/27 00:56:04;;;;;;;16.10;13.27;;;;;;;7.81;88.14;101220.34;5052862;28;20114;-74
2022/04/27 00:59:08;;;;;;;16.92;13.93;;;;;;;7.75;88.18;101221.38;5052432;28;20083;-74
2022/04/27 01:02:11;;;;;;;17.27;15.43;;;;;;;7.76;88.35;101219.66;5052423;28;20540;-74
2022/04/27 01:05:16;;;;;;;19.10;17.00;;;;;;;7.61;88.28;101218.34;5040043;28;20442;-74
2022/04/27 01:08:23;;;;;;;20.23;17.30;;;;;;;7.84;87.88;101215.06;5039909;28;20099;-74
2022/04/27 01:11:26;;;;;;;19.30;15.13;;;;;;;7.90;87.34;101225.28;5039844;28;20052;-74
2022/04/27 01:14:43;;;;;;;17.23;14.40;;;;;;;7.94;87.46;101226.88;5039846;28;20103;-74
2022/04/27 01:17:46;;;;;;;15.48;13.63;;;;;;;7.97;87.47;101228.56;5047760;28;20044;-74
2022/04/27 01:20:50;;;;;;;;;;;;;;;7.98;87.66;101228.53;5051210;28;20113;-74
2022/04/27 01:23:55;;;;;;;20.08;14.25;;;;;;;7.99;87.62;101232.81;5031073;28;19939;-74
2022/04/27 01:26:59;;;;;;;18.08;15.23;;;;;;;7.98;87.44;101232.88;5039463;28;20047;-74
2022/04/27 01:30:02;;;;;;;15.52;13.05;;;;;;;7.94;87.29;101237.31;5050842;28;20048;-74
2022/04/27 01:33:08;;;;;;;20.75;15.73;;;;;;;7.88;87.87;101237.50;5039402;28;20043;-74
2022/04/27 01:36:14;;;;;;;16.40;13.95;;;;;;;7.82;88.09;101232.50;5051817;28;20072;-74
2022/04/27 01:39:17;;;;;;;20.38;15.48;;;;;;;7.78;88.10;101236.06;5051531;28;20110;-74
2022/04/27 01:42:21;;;;;;;19.35;15.82;;;;;;;7.68;88.28;101236.31;5051779;28;20505;-74
2022/04/27 01:45:25;;;;;;;29.75;15.93;;;;;;;7.67;88.33;101242.44;5049917;28;20561;-74
2022/04/27 01:48:28;;;;;;;;;;;;;;;7.84;87.75;101241.09;5032684;28;20080;-74
2022/04/27 01:54:53;;;;;;;20.70;15.68;;;;;;;7.67;88.36;101244.19;5039218;28;20044;-73
2022/04/27 01:57:58;;;;;;;19.83;15.40;;;;;;;7.57;88.54;101238.41;5039035;28;20124;-74
2022/04/27 02:01:02;;;;;;;22.40;17.27;;;;;;;7.55;88.92;101252.34;5039196;28;20048;-74
2022/04/27 02:04:07;;;;;;;21.27;16.17;;;;;;;7.53;88.95;101262.81;5039115;28;20091;-74
2022/04/27 02:07:10;;;;;;;22.67;15.52;;;;;;;7.72;88.07;101254.47;5038868;28;20048;-73
2022/04/27 02:10:14;;;;;;;18.67;15.40;;;;;;;7.61;87.80;101254.78;5039014;28;20107;-73
2022/04/27 02:13:20;;;;;;;16.52;14.45;;;;;;;7.55;88.03;101253.19;5039552;28;20052;-74
2022/04/27 02:16:24;;;;;;;20.85;16.38;;;;;;;7.62;87.77;101257.31;5039122;28;20072;-74
2022/04/27 02:19:28;;;;;;;22.65;17.92;;;;;;;7.51;88.47;101254.19;5028136;28;20072;-74
2022/04/27 02:22:33;;;;;;;31.92;19.15;;;;;;;7.49;88.56;101262.91;5019485;28;20064;-74
2022/04/27 02:25:36;;;;;;;29.15;20.92;;;;;;;7.43;88.71;101257.00;5019213;28;20116;-74
2022/04/27 02:28:40;;;;;;;25.55;19.13;;;;;;;7.46;88.35;101261.25;5031085;28;20052;-75
2022/04/27 02:31:43;;;;;;;24.95;20.02;;;;;;;7.50;87.81;101267.22;5018667;28;20108;-74
2022/04/27 02:34:46;;;;;;;;;;;;;;;7.52;88.08;101271.50;5019116;28;20057;-74
2022/04/27 02:37:50;;;;;;;23.00;18.83;;;;;;;7.54;88.25;101268.84;5031611;28;20389;-74
2022/04/27 02:40:54;;;;;;;26.80;20.33;;;;;;;7.54;88.05;101264.50;5019243;28;20096;-74
2022/04/27 02:43:57;;;;;;;29.55;21.20;;;;;;;7.54;87.74;101268.84;5019311;28;20045;-74
2022/04/27 02:47:01;;;;;;;24.00;21.40;;;;;;;7.39;88.16;101270.13;5019113;28;20056;-74
2022/04/27 02:53:37;;;;;;;32.10;23.30;;;;;;;7.45;87.87;101277.75;5035229;28;20044;-75
2022/04/27 02:56:40;;;;;;;;;;;;;;;7.43;87.90;101274.34;5023501;28;20043;-75
2022/04/27 02:59:44;;;;;;;23.98;20.60;;;;;;;7.44;87.17;101273.47;5035184;28;19927;-75
2022/04/27 03:02:50;;;;;;;27.92;22.08;;;;;;;7.42;86.98;101275.25;5011486;28;20051;-75
2022/04/27 03:05:54;;;;;;;24.67;21.15;;;;;;;7.32;86.86;101279.00;5022864;28;20112;-75
2022/04/27 03:08:57;;;;;;;23.45;20.83;;;;;;;7.49;85.19;101287.19;5023143;28;20044;-74
2022/04/27 03:12:03;;;;;;;22.58;20.08;;;;;;;7.43;84.64;101283.03;5022609;28;20048;-74
2022/04/27 03:15:12;;;;;;;22.83;20.42;;;;;;;7.35;85.04;101291.94;5033398;28;20108;-74
2022/04/27 03:18:19;;;;;;;24.23;20.13;;;;;;;7.53;84.91;101288.84;5041523;28;20407;-74
2022/04/27 03:21:23;;;;;;;30.20;23.50;;;;;;;7.27;85.79;101291.25;5062232;28;20098;-74
2022/04/27 03:24:27;;;;;;;;;;;;;;;7.16;86.62;101287.19;5075113;28;20043;-74
2022/04/27 03:27:37;;;;;;;27.85;22.02;;;;;;;7.10;86.57;101283.91;5062280;28;19923;-75
2022/04/27 03:30:40;;;;;;;31.92;22.55;;;;;;;7.08;86.98;101296.09;5062331;28;20102;-75
2022/04/27 03:33:58;;;;;;;27.75;24.02;;;;;;;7.03;87.39;101292.75;5042025;28;20410;-74
2022/04/27 03:37:02;;;;;;;29.13;22.35;;;;;;;7.00;87.19;101301.50;5041837;28;20452;-74
2022/04/27 03:40:05;;;;;;;;;;;;;;;7.03;86.90;101300.56;5055022;28;20517;-75
2022/04/27 03:43:09;;;;;;;33.88;23.88;;;;;;;6.85;87.79;101302.72;5054311;28;20495;-74
2022/04/27 03:46:12;;;;;;;35.67;23.75;;;;;;;6.87;88.05;101305.28;5041708;28;20056;-74
2022/04/27 03:49:17;;;;;;;23.30;19.45;;;;;;;6.86;87.70;101312.22;5041844;28;20509;-74
2022/04/27 03:52:20;;;;;;;;;;;;;;;6.88;87.65;101304.38;5054513;28;20075;-74
2022/04/27 03:55:28;;;;;;;31.05;24.20;;;;;;;6.77;87.36;101306.41;5041896;28;19935;-74
2022/04/27 03:58:32;;;;;;;30.50;23.33;;;;;;;6.73;88.31;101316.88;5041670;28;20418;-74
2022/04/27 04:01:36;;;;;;;25.90;21.92;;;;;;;6.75;88.56;101315.06;5041592;28;20097;-75
2022/04/27 04:04:39;;;;;;;32.33;24.05;;;;;;;6.69;88.25;101320.41;5029246;28;20094;-72
2022/04/27 04:07:43;;;;;;;28.25;22.15;;;;;;;6.79;88.10;101328.00;5040811;28;20421;-75
2022/04/27 04:10:46;;;;;;;;;;;;;;;6.80;88.35;101332.31;5040474;28;20521;-70
2022/04/27 04:13:51;;;;;;;27.73;22.38;;;;;;;6.86;88.25;101337.34;5054447;28;19926;-74
2022/04/27 04:17:08;;;;;;;29.92;22.10;;;;;;;6.89;87.83;101337.28;5040931;28;20040;-76
2022/04/27 04:20:36;;;;;;;47.53;24.00;;;;;;;6.85;88.23;101335.66;5052928;28;20044;-77
2022/04/27 04:23:55;;;;;;;68.22;24.38;;;;;;;6.80;88.51;101340.13;5036429;28;20056;-75
2022/04/27 04:30:20;;;;;;;44.45;25.27;;;;;;;6.80;89.50;101353.97;5044247;28;20058;-76
2022/04/27 04:33:34;;;;;;;41.50;23.77;;;;;;;6.93;88.98;101357.13;5038922;28;20044;-73
2022/04/27 04:36:38;;;;;;;37.63;24.35;;;;;;;6.88;89.32;101346.81;5040165;28;20047;-77
2022/04/27 04:39:41;;;;;;;;;;;;;;;6.83;89.41;101358.22;5040730;28;20048;-78
2022/04/27 04:42:44;;;;;;;45.05;25.63;;;;;;;6.89;89.53;101365.88;5040561;28;19967;-76
2022/04/27 04:45:48;;;;;;;;;;;;;;;6.82;89.35;101365.16;5050620;28;20516;-81
2022/04/27 04:49:07;;;;;;;28.70;23.38;;;;;;;7.04;88.70;101369.88;5038534;28;19942;-76
2022/04/27 04:52:35;;;;;;;40.20;24.95;;;;;;;7.23;87.75;101376.31;5023139;28;20040;-81
2022/04/27 04:55:57;;;;;;;30.55;24.13;;;;;;;7.14;87.27;101382.59;5049889;28;20053;-76
2022/04/27 04:59:32;;;;;;;27.65;23.77;;;;;;;7.20;87.72;101384.22;5035751;28;20533;-78
2022/04/27 05:02:47;;;;;;;33.10;24.75;;;;;;;7.31;86.87;101389.16;5016689;28;20048;-78
2022/04/27 05:06:04;;;;;;;30.95;24.45;;;;;;;7.24;87.07;101391.03;5029147;28;20048;-74
2022/04/27 05:09:34;;;;;;;36.08;27.38;;;;;;;7.16;87.19;101396.44;5028177;28;20044;-76
2022/04/27 05:12:56;;;;;;;26.05;23.23;;;;;;;7.20;86.91;101392.84;5030227;28;20121;-81
2022/04/27 05:16:14;;;;;;;31.55;24.20;;;;;;;7.25;87.01;101397.97;5045726;28;20051;-77
2022/04/27 05:19:48;;;;;;;30.10;24.27;;;;;;;7.19;87.29;101403.31;5023358;28;20425;-75
2022/04/27 05:23:13;;;;;;;30.42;24.80;;;;;;;7.23;87.53;101400.59;5040763;28;20051;-74
2022/04/27 05:26:36;;;;;;;31.30;23.25;;;;;;;7.35;86.87;101404.66;5028008;28;20052;-75
2022/04/27 05:33:41;;;;;;;30.08;24.75;;;;;;;7.45;86.18;101418.28;5035292;28;20102;-76
2022/04/27 05:36:50;;;;;;;29.27;23.10;;;;;;;7.40;86.37;101420.13;5047310;28;20035;-74
2022/04/27 05:40:10;;;;;;;29.98;23.55;;;;;;;7.43;86.67;101427.84;5035167;28;20109;-74
2022/04/27 05:43:47;;;;;;;30.25;25.13;;;;;;;7.49;86.41;101432.91;5029740;28;20043;-73
2022/04/27 05:47:13;;;;;;;29.90;24.92;;;;;;;7.53;86.73;101434.56;5034215;28;20044;-73
2022/04/27 05:50:29;;;;;;;30.80;25.08;;;;;;;7.58;86.63;101445.69;5044293;28;20044;-75
2022/04/27 05:53:58;;;;;;;32.80;26.33;;;;;;;7.65;86.96;101439.44;5068693;28;20047;-74
2022/04/27 05:57:13;;;;;;;30.88;25.20;;;;;;;7.90;85.46;101439.66;5071898;28;20110;-72
2022/04/27 06:00:27;;;;;;;29.02;25.05;;;;;;;8.02;84.56;101451.50;5059090;28;20055;-76
2022/04/27 06:03:50;;;;;;;31.88;26.98;;;;;;;8.03;84.90;101453.22;5059548;28;20101;-77
2022/04/27 06:06:53;;;;;;;33.42;27.98;;;;;;;8.08;84.95;101448.75;5059272;28;20039;-74
2022/04/27 06:09:57;;;;;;;34.00;26.40;;;;;;;8.21;84.57;101459.69;5057547;28;20070;-76
2022/04/27 06:13:08;;;;;;;44.22;31.27;;;;;;;8.16;84.13;101462.38;5059011;28;20063;-77
2022/04/27 06:16:22;;;;;;;34.85;30.88;;;;;;;8.21;84.38;101464.03;5047911;28;20178;-76
2022/04/27 06:19:39;;;;;;;34.42;29.73;;;;;;;8.30;84.44;101458.59;5018487;28;20056;-74
2022/04/27 06:22:48;;;;;;;34.30;28.55;;;;;;;8.38;84.28;101465.28;5038857;28;20044;-77
2022/04/27 06:25:51;;;;;;;;;;;;;;;8.43;84.14;101469.53;5038459;28;20056;-74
2022/04/27 06:28:57;;;;;;;32.50;28.33;;;;;;;8.46;83.34;101472.91;5042343;28;19967;-76
2022/04/27 06:32:00;;;;;;;33.88;29.70;;;;;;;8.49;83.13;101483.25;5042537;28;20394;-76
2022/04/27 06:35:04;;;;;;;28.65;25.73;;;;;;;8.41;82.89;101481.75;5042780;28;20044;-76
2022/04/27 06:38:09;;;;;;;27.50;24.70;;;;;;;8.44;83.32;101482.53;5042183;28;20125;-71
2022/04/27 06:41:13;;;;;;;32.95;28.95;;;;;;;7.92;85.92;101489.13;5034384;28;20186;-77
2022/04/27 06:44:35;;;;;;;34.22;30.52;;;;;;;7.91;86.63;101493.47;5033687;28;20157;-77
2022/04/27 06:47:57;;;;;;;32.25;28.95;;;;;;;8.12;86.39;101496.41;5032770;28;20083;-77
2022/04/27 06:51:19;;;;;;;33.35;28.80;;;;;;;8.20;86.57;101494.47;5033514;28;20052;-77
2022/04/27 06:54:41;;;;;;;32.72;29.30;;;;;;;8.23;85.50;101493.50;5033330;28;20138;-77
2022/04/27 06:58:22;;;;;;;33.22;29.52;;;;;;;7.79;86.66;101500.75;5027934;28;20049;-77
2022/04/27 07:01:38;;;;;;;33.58;29.88;;;;;;;7.79;87.57;101504.19;5022246;28;20463;-77
2022/04/27 07:04:50;;;;;;;31.75;27.80;;;;;;;8.06;87.19;101513.03;5011705;28;20076;-77
2022/04/27 07:07:54;;;;;;;32.22;28.85;;;;;;;8.06;86.25;101518.25;5022880;28;20072;-77
2022/04/27 07:10:57;;;;;;;32.08;28.65;;;;;;;7.83;86.68;101520.59;5034820;28;20051;-77
2022/04/27 07:14:00;;;;;;;33.63;30.20;;;;;;;7.88;88.15;101530.00;5034451;28;20541;-77
2022/04/27 07:17:03;;;;;;;;;;;;;;;7.96;87.16;101529.81;5034747;28;20433;-77
2022/04/27 07:20:08;;;;;;;31.27;28.08;;;;;;;8.35;85.64;101527.88;5034325;28;20298;-77
2022/04/27 07:23:11;;;;;;;30.17;27.15;;;;;;;8.51;84.04;101536.19;5034106;28;20103;-77
2022/04/27 07:26:14;;;;;;;31.70;28.37;;;;;;;8.77;84.17;101532.00;5034157;28;20103;-77
2022/04/27 07:29:17;;;;;;;30.00;26.90;;;;;;;8.87;83.84;101538.66;5053053;28;20102;-77
2022/04/27 07:32:21;;;;;;;30.60;26.77;;;;;;;8.92;83.76;101535.91;5053887;28;20099;-77
2022/04/27 07:35:24;;;;;;;30.38;27.17;;;;;;;9.11;82.38;101536.22;5054186;28;20273;-77
2022/04/27 07:38:28;;;;;;;31.55;28.23;;;;;;;9.24;82.31;101542.78;5058182;28;20046;-78
2022/04/27 07:41:32;;;;;;;32.58;29.15;;;;;;;9.34;81.86;101538.97;5073979;28;20048;-77
2022/04/27 07:44:36;;;;;;;30.67;27.55;;;;;;;9.34;81.47;101544.19;5073834;28;20517;-77
2022/04/27 07:47:39;;;;;;;35.65;30.98;;;;;;;9.25;83.38;101550.59;5073484;28;20087;-77
2022/04/27 07:50:42;;;;;;;;;;;;;;;9.33;83.65;101547.72;5061939;28;20051;-77
2022/04/27 07:53:45;;;;;;;34.43;30.67;;;;;;;9.04;83.44;101546.84;5073713;28;20087;-77
2022/04/27 07:56:49;;;;;;;34.10;29.83;;;;;;;9.27;83.22;101548.75;5072808;28;20082;-77
2022/04/27 07:59:52;;;;;;;;;;;;;;;9.52;82.46;101555.84;5073852;28;20567;-78
2022/04/27 08:02:55;;;;;;;43.43;34.37;;;;;;;9.73;81.49;101551.69;5073601;28;19958;-78
2022/04/27 08:06:01;;;;;;;31.92;28.70;;;;;;;9.96;81.30;101564.84;5073662;28;20043;-78
2022/04/27 08:09:04;;;;;;;29.38;26.48;;;;;;;9.94;80.36;101560.59;5065734;28;20086;-78
2022/04/27 08:12:08;;;;;;;29.98;26.77;;;;;;;9.91;80.03;101569.38;5053438;28;20099;-77
2022/04/27 08:15:11;;;;;;;;;;;;;;;9.96;79.61;101564.84;5053589;28;20110;-78
2022/04/27 08:18:14;;;;;;;28.73;24.77;;;;;;;9.77;79.60;101564.59;5053398;28;20022;-78
2022/04/27 08:21:21;;;;;;;26.80;23.27;;;;;;;9.81;81.23;101570.56;5053285;28;20102;-78
2022/04/27 08:24:24;;;;;;;28.13;24.23;;;;;;;9.83;79.63;101567.91;5053116;28;20164;-77
2022/04/27 08:27:27;;;;;;;;;;;;;;;9.98;80.66;101567.41;5028984;28;20060;-78
2022/04/27 08:30:30;;;;;;;25.30;22.67;;;;;;;9.75;78.67;101565.56;5042003;28;20628;-78
2022/04/27 08:33:34;;;;;;;26.58;23.80;;;;;;;9.72;79.38;101571.72;5050852;28;20052;-78
2022/04/27 08:36:37;;;;;;;28.33;23.92;;;;;;;9.72;80.28;101565.66;5050935;28;20434;-78
2022/04/27 08:39:41;;;;;;;;;;;;;;;9.94;80.49;101568.41;5052448;28;20129;-78
2022/04/27 08:42:44;;;;;;;26.75;24.15;;;;;;;10.13;80.92;101571.28;5052944;28;19955;-78
2022/04/27 08:45:48;;;;;;;26.02;23.42;;;;;;;10.20;80.14;101567.53;5052644;28;20056;-78
2022/04/27 08:48:51;;;;;;;24.80;22.20;;;;;;;10.32;79.87;101568.94;5052362;28;20427;-78
2022/04/27 08:51:56;;;;;;;;;;;;;;;9.94;78.07;101571.88;5053317;28;20047;-78
2022/04/27 08:55:00;;;;;;;25.08;22.30;;;;;;;9.99;78.34;101572.59;5052427;28;19978;-78
2022/04/27 08:58:12;;;;;;;21.83;19.52;;;;;;;10.08;78.28;101565.34;5052066;28;20040;-78
2022/04/27 09:01:16;;;;;;;22.73;18.70;;;;;;;10.22;77.57;101565.75;5052255;28;20051;-78
2022/04/27 09:04:19;;;;;;;22.08;19.92;;;;;;;10.34;76.84;101562.75;5052697;28;20048;-78
2022/04/27 09:07:23;;;;;;;18.98;17.08;;;;;;;10.52;77.17;101563.00;5055412;28;20521;-78
2022/04/27 09:10:27;;;;;;;;;;;;;;;10.65;78.99;101559.03;5043362;28;20123;-77
2022/04/27 09:13:34;;;;;;;;;;;;;;;10.75;77.68;101555.16;5052778;28;20435;-78
2022/04/27 09:23:40;;;;;;;19.42;16.90;;;;;;;10.90;76.89;101554.59;5052225;28;20075;-78
2022/04/27 09:26:43;;;;;;;17.60;15.80;;;;;;;10.86;75.90;101550.41;5052019;28;20043;-78
2022/04/27 09:29:56;;;;;;;17.25;15.45;;;;;;;10.93;75.58;101559.72;5050953;28;20052;-78
2022/04/27 09:32:59;;;;;;;20.93;15.97;;;;;;;11.16;77.19;101556.22;5037890;28;20067;-78
2022/04/27 09:36:23;;;;;;;22.15;14.70;;;;;;;11.28;75.55;101554.91;5051821;28;20418;-78
2022/04/27 09:39:27;;;;;;;;;;;;;;;11.52;76.24;101558.34;5051400;28;20679;-78
2022/04/27 09:42:31;;;;;;;;;;;;;;;11.57;73.71;101545.06;5052258;28;20385;-78
2022/04/27 09:45:34;;;;;;;19.70;13.77;;;;;;;11.64;73.22;101551.75;5051302;28;20000;-78
2022/04/27 09:48:38;;;;;;;14.63;13.10;;;;;;;11.66;73.72;101544.69;5051645;28;20071;-78
2022/04/27 09:51:49;;;;;;;16.90;14.15;;;;;;;11.73;72.96;101550.53;5039485;28;20560;-78
2022/04/27 09:54:55;;;;;;;15.63;13.38;;;;;;;11.86;73.27;101547.38;5051278;28;20047;-78
2022/04/27 09:58:00;;;;;;;15.95;13.07;;;;;;;11.86;72.20;101542.13;5039433;28;20485;-78
2022/04/27 10:01:04;;;;;;;15.10;13.20;;;;;;;11.97;73.32;101543.47;5050848;28;20051;-78
2022/04/27 10:04:11;;;;;;;17.73;13.80;;;;;;;12.07;71.38;101539.53;5051279;28;20079;-78
2022/04/27 10:07:14;;;;;;;16.55;14.20;;;;;;;12.19;71.94;101541.66;5057367;28;20155;-78
2022/04/27 10:10:18;;;;;;;;;;;;;;;12.28;71.06;101537.75;5043554;28;20063;-78
2022/04/27 10:13:24;;;;;;;;;;;;;;;12.23;70.00;101537.13;5050794;28;19919;-79
2022/04/27 10:16:27;;;;;;;15.05;11.75;;;;;;;12.32;71.51;101536.72;5050704;28;19931;-76
2022/04/27 10:19:31;;;;;;;18.95;12.82;;;;;;;12.72;71.02;101533.16;5050616;28;20598;-70
2022/04/27 10:22:35;;;;;;;15.65;12.00;;;;;;;12.80;70.80;101532.84;5050951;28;20043;-74
2022/04/27 10:25:38;;;;;;;16.30;11.23;;;;;;;12.85;69.59;101522.13;5051217;28;20410;-74
2022/04/27 10:28:43;;;;;;;15.35;11.48;;;;;;;12.89;67.22;101527.19;5050585;28;20102;-72
2022/04/27 10:31:53;;;;;;;13.77;10.25;;;;;;;13.12;68.44;101526.09;5047434;28;20095;-74
2022/04/27 10:35:11;;;;;;;13.82;11.55;;;;;;;13.10;67.46;101520.06;5050735;28;20056;-76
2022/04/27 10:38:23;;;;;;;17.15;11.45;;;;;;;13.15;67.85;101518.09;5055231;28;20136;-74
2022/04/27 10:41:26;;;;;;;13.35;11.05;;;;;;;13.02;66.37;101519.59;5071338;28;20113;-74
2022/04/27 10:44:53;;;;;;;15.25;11.73;;;;;;;13.14;66.95;101524.22;5058961;28;20120;-74
2022/04/27 10:47:56;;;;;;;14.18;10.27;;;;;;;13.19;66.07;101508.28;5058785;28;20072;-78
2022/04/27 10:51:03;;;;;;;14.68;10.23;;;;;;;13.22;66.09;101511.59;5052243;28;20470;-74
2022/04/27 10:54:07;;;;;;;12.73;9.73;;;;;;;13.38;65.81;101508.28;5050690;28;20129;-76
2022/04/27 10:57:17;;;;;;;15.15;10.10;;;;;;;13.13;62.72;101506.78;5050731;28;20036;-78
2022/04/27 11:00:20;;;;;;;12.30;8.65;;;;;;;13.15;63.88;101497.06;5038286;28;20051;-76
2022/04/27 11:03:31;;;;;;;12.80;8.75;;;;;;;13.23;63.70;101497.53;5050677;28;20044;-75
2022/04/27 11:06:53;;;;;;;10.93;8.98;;;;;;;13.43;66.88;101495.75;5049819;28;20506;-76
2022/04/27 11:10:16;;;;;;;10.05;7.38;;;;;;;13.78;63.62;101491.38;5053421;28;20052;-75
2022/04/27 11:13:25;;;;;;;12.40;8.32;;;;;;;14.07;62.89;101487.31;5052802;28;20052;-75
2022/04/27 11:16:28;;;;;;;10.45;7.68;;;;;;;14.08;62.03;101491.63;5054498;28;20091;-79
2022/04/27 11:19:35;;;;;;;;;;;;;;;14.12;63.54;101485.25;5054494;28;20060;-76
2022/04/27 11:22:39;;;;;;;7.70;5.47;;;;;;;14.25;56.62;101484.63;5054663;28;19970;-77
2022/04/27 11:25:49;;;;;;;8.07;5.95;;;;;;;14.35;59.16;101484.06;5054067;28;20060;-77
2022/04/27 11:28:54;;;;;;;8.93;6.38;;;;;;;14.74;61.93;101474.13;5053773;28;20064;-75
2022/04/27 11:31:57;;;;;;;7.75;6.28;;;;;;;14.97;59.02;101476.38;5053073;28;20454;-73
2022/04/27 11:35:01;;;;;;;7.65;5.60;;;;;;;14.97;57.68;101476.38;5051316;28;20040;-74
2022/04/27 11:38:05;;;;;;;7.13;5.10;;;;;;;15.00;53.55;101470.94;5073739;28;20191;-75
2022/04/27 11:41:14;;;;;;;7.45;5.68;;;;;;;15.15;56.76;101474.47;5074453;28;20529;-72
2022/04/27 11:44:21;;;;;;;7.28;5.07;;;;;;;15.07;56.35;101466.19;5074054;28;20134;-71
2022/04/27 11:47:30;;;;;;;7.03;5.80;;;;;;;14.75;53.44;101460.91;5073846;28;20067;-70
2022/04/27 11:50:35;;;;;;;7.93;5.32;;;;;;;14.58;54.65;101469.72;5073722;28;20497;-70
2022/04/27 11:53:43;;;;;;;8.95;5.13;;;;;;;14.81;55.30;101462.34;5073876;28;20083;-71
2022/04/27 11:56:55;;;;;;;6.70;4.28;;;;;;;15.15;54.18;101463.09;5073602;28;20051;-72
2022/04/27 11:59:59;;;;;;;8.98;4.78;;;;;;;15.37;55.50;101457.44;5073385;28;20547;-71
2022/04/27 12:03:04;;;;;;;8.32;5.85;;;;;;;15.47;52.50;101453.34;5073949;28;20123;-72
2022/04/27 12:06:09;;;;;;;7.38;4.80;;;;;;;15.52;54.01;101457.41;5071584;28;20047;-71
2022/04/27 12:09:16;;;;;;;5.55;4.22;;;;;;;15.47;52.32;101454.19;5066591;28;20501;-71
2022/04/27 12:12:20;;;;;;;10.27;5.32;;;;;;;15.88;53.24;101453.56;5053250;28;20055;-77
2022/04/27 12:15:26;;;;;;;6.10;4.63;;;;;;;16.13;52.04;101454.75;5053269;28;20518;-76
2022/04/27 12:18:31;;;;;;;8.60;4.38;;;;;;;16.13;50.03;101444.19;5053099;28;20541;-74
2022/04/27 12:21:34;;;;;;;7.25;4.13;;;;;;;16.40;49.29;101450.44;5053273;28;20566;-70
2022/04/27 12:24:44;;;;;;;5.55;3.35;;;;;;;16.59;49.34;101438.69;5052475;28;20115;-76
2022/04/27 12:27:49;;;;;;;3.92;3.03;;;;;;;16.62;48.83;101439.34;5053204;28;20079;-71
2022/04/27 12:30:57;;;;;;;6.30;3.42;;;;;;;16.36;46.15;101438.34;5053361;28;20079;-73
2022/04/27 12:34:03;;;;;;;6.13;3.20;;;;;;;16.90;44.98;101443.75;5051764;28;20047;-73
2022/04/27 12:40:32;;;;;;;5.80;3.10;;;;;;;17.45;46.38;101436.66;5072910;28;20105;-76
2022/04/27 12:43:48;;;;;;;9.40;3.22;;;;;;;17.69;42.55;101439.47;5072783;28;20055;-78
2022/04/27 12:47:02;;;;;;;5.40;3.25;;;;;;;18.11;42.64;101433.03;5072771;28;20076;-74
2022/04/27 12:50:05;;;;;;;5.32;2.70;;;;;;;17.98;40.27;101428.72;5060494;28;20066;-78
2022/04/27 12:53:10;;;;;;;6.32;3.30;;;;;;;18.26;41.94;101431.13;5072447;28;20529;-72
2022/04/27 12:56:16;;;;;;;10.18;3.45;;;;;;;18.52;39.68;101425.78;5060211;28;20102;-73
2022/04/27 12:59:19;;;;;;;5.07;2.85;;;;;;;18.94;41.08;101421.88;5072494;28;20043;-73
2022/04/27 13:02:23;;;;;;;4.72;3.25;;;;;;;19.19;40.68;101420.06;5072728;28;20047;-72
2022/04/27 13:05:27;;;;;;;6.57;3.03;;;;;;;19.28;38.78;101409.63;5069437;28;20098;-72
2022/04/27 13:08:30;;;;;;;5.03;2.67;;;;;;;19.28;39.28;101420.22;5070560;28;20047;-72
2022/04/27 13:14:55;;;;;;;7.88;2.47;;;;;;;19.52;38.45;101406.06;5052253;28;20048;-74
2022/04/27 13:19:10;;;;;;;6.32;2.45;;;;;;;20.10;35.83;101396.31;5051682;28;20055;-71
2022/04/27 13:27:18;;;;;;;5.88;2.72;;;;;;;20.10;34.82;101388.34;5012483;28;20049;-73
2022/04/27 13:30:22;;;;;;;4.97;2.78;;;;;;;20.79;33.48;101389.94;5012400;28;20136;-71
2022/04/27 13:33:26;;;;;;;5.72;2.53;;;;;;;21.29;33.65;101390.25;5012335;28;20503;-70
2022/04/27 13:36:29;;;;;;;3.45;1.88;;;;;;;22.02;32.81;101393.81;5015713;28;20072;-75
2022/04/27 13:39:33;;;;;;;8.38;3.40;;;;;;;22.10;31.15;101388.63;5032052;28;20100;-70
2022/04/27 13:42:38;;;;;;;6.47;3.08;;;;;;;23.60;28.75;101375.06;5032369;28;20084;-71
2022/04/27 13:45:44;;;;;;;6.00;2.83;;;;;;;24.53;28.66;101369.78;5032036;28;20053;-73
2022/04/27 13:48:47;;;;;;;7.85;2.78;;;;;;;26.44;24.51;101368.13;5030508;28;20048;-73
2022/04/27 13:51:51;;;;;;;7.13;2.35;;;;;;;29.76;19.01;101364.53;5031611;28;20095;-72
2022/04/27 13:54:59;;;;;;;5.97;2.72;;;;;;;31.57;17.30;101352.78;5031538;28;20133;-73
2022/04/27 13:58:03;;;;;;;4.68;2.42;;;;;;;32.97;15.14;101342.50;5031538;28;20040;-72
2022/04/27 14:01:07;;;;;;;5.90;2.78;;;;;;;33.24;16.77;101343.28;5031765;28;20096;-72
2022/04/27 14:04:10;;;;;;;5.88;2.58;;;;;;;32.39;15.80;101345.69;5031694;28;20047;-72
2022/04/27 14:07:14;;;;;;;5.65;2.22;;;;;;;34.23;15.52;101336.78;5031378;28;20064;-69
2022/04/27 14:10:18;;;;;;;3.05;1.88;;;;;;;34.57;14.98;101332.00;5016160;28;20132;-72
2022/04/27 14:13:28;;;;;;;4.13;2.10;;;;;;;34.30;15.00;101336.72;5015376;28;20099;-72
2022/04/27 14:19:53;;;;;;;3.92;2.03;;;;;;;32.48;16.52;101332.81;5060186;28;20068;-73
2022/04/27 14:22:57;;;;;;;4.78;1.80;;;;;;;30.32;17.65;101332.53;5071778;28;20051;-71
2022/04/27 14:26:00;;;;;;;4.25;2.03;;;;;;;29.41;18.75;101333.75;5070379;28;20075;-70
2022/04/27 14:29:05;;;;;;;5.68;2.13;;;;;;;33.70;15.13;101326.13;5069664;28;20090;-71
2022/04/27 14:32:09;;;;;;;6.70;2.00;;;;;;;33.27;16.36;101322.03;5070222;28;20276;-71
2022/04/27 14:35:13;;;;;;;4.78;2.38;;;;;;;33.38;15.62;101323.28;5082479;23;20036;-68
2022/04/27 14:38:16;;;;;;;5.45;2.05;;;;;;;33.42;15.53;101319.09;5002919;28;20124;-69
2022/04/27 14:41:20;;;;;;;6.88;2.28;;;;;;;33.09;16.65;101319.97;5012006;28;20056;-68
2022/04/27 14:44:23;;;;;;;8.43;2.22;;;;;;;34.22;15.70;101313.41;5011859;28;20126;-67
2022/04/27 14:47:27;;;;;;;3.75;1.63;;;;;;;33.40;14.51;101318.44;5011394;28;20056;-68
2022/04/27 14:50:32;;;;;;;3.92;2.13;;;;;;;32.40;15.04;101314.84;5002899;28;20503;-68
2022/04/27 14:53:36;;;;;;;7.75;2.30;;;;;;;33.52;15.15;101314.06;5015213;28;20104;-68
2022/04/27 14:56:41;;;;;;;4.90;1.98;;;;;;;34.33;14.67;101309.16;5014672;28;20539;-67
2022/04/27 14:59:44;;;;;;;7.68;2.20;;;;;;;31.84;17.49;101320.47;4995266;28;20049;-68
2022/04/27 15:02:48;;;;;;;6.57;1.88;;;;;;;29.10;20.27;101333.88;4994377;28;20073;-69
2022/04/27 15:05:52;;;;;;;3.80;1.67;;;;;;;24.78;25.89;101336.97;4995377;28;20086;-70
2022/04/27 15:08:56;;;;;;;4.55;1.70;;;;;;;23.02;28.14;101350.31;4995968;28;20049;-70